No se requiere un especial cuidado respecto a la situación meteorológica.   -   No hay avisos
13°C
Sevilla, Andalucía, España
Idioma: es English Français Deutsch Italiano Português Español
 

Informes METAR

 

LEZL - Sevilla, Spain
Distancia de la estación: ENE 8km
Actualización: 19/12/2018 11:00
Poco nuboso
Poco nuboso
 Viento de NNO
Viento: NNO 9 km/h
Temperatura: 13°C
Rocío: 9°C
Humedad: 77%
Barómetro: 1027 hPa
Nubes: Poco nuboso
Visibilidad: 10 km
Detalles de las nubes: Poco nuboso 610 m
2018/12/19 10:00 LEZL 191000Z 34005KT 300V030 9999 FEW020 13/09 Q1027 NOSIG
LEMO - Morón, Spain
Distancia de la estación: SE 43km
Actualización: 19/12/2018 11:00
Muy nuboso
Muy nuboso
 Viento de NNO
Viento: NNO 11 km/h
Temperatura: 12°C
Rocío: 10°C
Humedad: 88%
Barómetro: 1027 hPa
Nubes: Muy nuboso
Visibilidad: 10 km
Detalles de las nubes: Poco nuboso 274 m
Muy nuboso 732 m
2018/12/19 10:00 LEMO 191000Z 34006KT 9999 FEW009 BKN024 12/10 Q1027 NOSIG
LEJR - Jeréz, Spain
Distancia de la estación: S 71km
Actualización: 19/12/2018 11:30
Muy nuboso
Muy nuboso
 Viento de NO
Viento: NO 13 km/h
Temperatura: 13°C
Rocío: 13°C
Humedad: 100%
Barómetro: 1027 hPa
Nubes: Muy nuboso
Visibilidad: 10 km
Detalles de las nubes: Parcialmente nuboso 152 m
Muy nuboso 1676 m
2018/12/19 10:30 LEJR 191030Z 32007KT 9999 SCT005 BKN055 13/13 Q1027
 
LERT - Rota, Spain
Distancia de la estación: SSO 89km
Actualización: 19/12/2018 11:00
Parcialmente nuboso
Parcialmente nuboso
 Viento de NNO
Viento: NNO 13 km/h
Temperatura: 13°C
Rocío: 12°C
Humedad: 94%
Barómetro: 1027 hPa
Nubes: Parcialmente nuboso
Visibilidad: 10 km
Detalles de las nubes: Poco nuboso 427 m
Parcialmente nuboso 1402 m
2018/12/19 10:00 LERT 191000Z 33007KT 290V360 9999 FEW014 SCT046 13/12 Q1027 NOSIG
LEMG - Málaga, Spain
Distancia de la estación: ESE 157km
Actualización: 19/12/2018 11:00
Poco nuboso
Poco nuboso
 Viento de NO
Viento: NO 7 km/h
Temperatura: 13°C
Rocío: 11°C
Humedad: 88%
Barómetro: 1025 hPa
Nubes: Poco nuboso
Visibilidad: 10 km
Detalles de las nubes: Poco nuboso 2438 m
2018/12/19 10:00 LEMG 191000Z 31004KT 9999 FEW080 13/11 Q1025 NOSIG
LEBA - Córdoba, Spain
Distancia de la estación: ENE 115km
Actualización: 19/12/2018 11:10
Bancos de niebla, Parcialmente nuboso
Bancos de niebla, Parcialmente nuboso
 Viento de SSE
Viento: SSE 4 km/h
Temperatura: 12°C
Rocío: 11°C
Humedad: 94%
Barómetro: 1027 hPa
Resumen: Patches of Fog
Nubes: Parcialmente nuboso
Visibilidad: 8 km
Detalles de las nubes: Parcialmente nuboso 152 m
2018/12/19 10:10 LEBA 191010Z 15002KT 8000 2000SW BCFG SCT005 12/11 Q1027
 
LEGR - Granada, Spain
Distancia de la estación: E 198km
Actualización: 19/12/2018 11:00
Muy nuboso
Muy nuboso
 Viento de calm
Viento: Calma
Temperatura: 9°C
Rocío: 7°C
Humedad: 87%
Barómetro: 1026 hPa
Nubes: Muy nuboso
Visibilidad: 10 km
Detalles de las nubes: Poco nuboso 152 m
Muy nuboso 762 m
2018/12/19 10:00 LEGR 191000Z 00000KT 9999 FEW005 BKN025 09/07 Q1026
LEAM - Almería, Spain
Distancia de la estación: E 326km
Actualización: 19/12/2018 11:00
Muy nuboso
Muy nuboso
 Viento de variable
Viento: variable 2 km/h
Temperatura: 15°C
Rocío: 11°C
Humedad: 77%
Barómetro: 1024 hPa
Nubes: Muy nuboso
Visibilidad: 10 km
Detalles de las nubes: Poco nuboso 305 m
Muy nuboso 366 m
2018/12/19 10:00 LEAM 191000Z VRB01KT 9999 FEW010 BKN012 15/11 Q1024
LEMD - Madrid/Barajas, Spain
Distancia de la estación: NNE 402km
Actualización: 19/12/2018 11:00
Parcialmente nuboso
Parcialmente nuboso
 Viento de variable
Viento: variable 6 km/h
Temperatura: 7°C
Rocío: 6°C
Humedad: 93%
Barómetro: 1024 hPa
Nubes: Parcialmente nuboso
Visibilidad: 9 km
Detalles de las nubes: Parcialmente nuboso 305 m
2018/12/19 10:00 LEMD 191000Z VRB03KT 9000 SCT010 07/06 Q1024 NOSIG
 
LEVD - Valladolid, Spain
Distancia de la estación: N 492km
Actualización: 19/12/2018 11:00
Muy nuboso
Muy nuboso
 Viento de SO
Viento: SO 20 km/h
Temperatura: 4°C
Sensación térmica: -1°C
Rocío: 3°C
Humedad: 93%
Barómetro: 1022 hPa
Nubes: Muy nuboso
Visibilidad: 10 km
Detalles de las nubes: Muy nuboso 183 m
Muy nuboso 792 m
2018/12/19 10:00 LEVD 191000Z 23011KT 9999 BKN006 BKN026 04/03 Q1022
LEBL - Barcelona, Spain
Distancia de la estación: NE 816km
Actualización: 19/12/2018 11:00
Poco nuboso
Poco nuboso
 Viento de NNO
Viento: NNO 9 km/h
Temperatura: 13°C
Rocío: 7°C
Humedad: 67%
Barómetro: 1019 hPa
Nubes: Poco nuboso
Visibilidad: 10 km
Detalles de las nubes: Poco nuboso 1067 m
2018/12/19 10:00 LEBL 191000Z 33005KT 280V080 9999 FEW035 13/07 Q1019 NOSIG
LEVC - Valencia, Spain
Distancia de la estación: ENE 535km
Actualización: 19/12/2018 11:00
Poco nuboso
Poco nuboso
 Viento de OSO
Viento: OSO 22 km/h
Temperatura: 16°C
Rocío: 10°C
Humedad: 68%
Barómetro: 1022 hPa
Nubes: Poco nuboso
Visibilidad: 10 km
Detalles de las nubes: Poco nuboso 1067 m
2018/12/19 10:00 LEVC 191000Z 25012KT 9999 FEW035 16/10 Q1022 NOSIG